EGHC

Land's End Airport

Land's End, United Kingdom
METAR EGHC 191120Z 25012KT 9999 VCSH FEW010 SCT016 09/05 Q1004
Observed Flight Rules
Dec-19 @ 11:20 UTC (26 minutes ago) Visual Flight Rules
Wind Visibility Clouds
250° at 12 knots 10,000+ meters
  • Few at 1,000' AGL
  • Scattered at 1,600' AGL
Temperatures Readings
Current 9°C / 48°F
Dewpoint 5°C / 41°F
Humidity 76%
Altimeter 29.65" Hg
Pressure 1004 hPa
Elevation 122
METAR EGHC 191120Z 25012KT 9999 VCSH FEW010 SCT016 09/05 Q1004
Observed Flight Rules
Dec-19 @ 11:20 UTC
(26 minutes ago)
VFR
Wind Visibility
250° at 12 knots 10,000+ meters
Clouds
  • Few at 1,000' AGL
  • Scattered at 1,600' AGL
Temperature Dewpoint
9°C / 48°F 5°C / 41°F
Humidity Altimeter Pressure
76% 29.65" Hg 1004 hPa